Time;durP1;ratioP1;P1;durP2;ratioP2;P2;SDS_P1;SDS_P2;PMS_P1;PMS_P2;Temp;Humidity;BMP_temperature;BMP_pressure;BME280_temperature;BME280_humidity;BME280_pressure;Samples;Min_cycle;Max_cycle;Signal;HPM_P1;HPM_P2
2022/08/09 00:01:10;;;;;;;9.23;1.90;;;;;;;17.18;68.35;102530.69;5011134;28;20034;-69
2022/08/09 00:03:35;;;;;;;4.07;2.20;;;;;;;17.12;68.77;102515.75;4994569;28;20022;-70
2022/08/09 00:06:01;;;;;;;6.82;2.13;;;;;;;17.09;69.07;102527.91;4994974;28;20022;-69
2022/08/09 00:08:26;;;;;;;4.57;1.88;;;;;;;17.03;69.17;102517.59;4994578;28;20030;-69
2022/08/09 00:10:51;;;;;;;5.90;2.30;;;;;;;17.02;69.29;102520.50;5010994;28;20048;-69
2022/08/09 00:13:17;;;;;;;4.47;2.08;;;;;;;17.07;68.53;102523.59;4993534;28;20124;-68
2022/08/09 00:15:42;;;;;;;5.85;2.00;;;;;;;17.10;68.51;102528.75;4994390;28;20026;-69
2022/08/09 00:18:08;;;;;;;6.95;1.98;;;;;;;16.98;69.27;102528.16;4994429;28;20073;-69
2022/08/09 00:20:33;;;;;;;5.80;1.77;;;;;;;16.89;69.71;102526.41;4994630;28;20030;-69
2022/08/09 00:22:58;;;;;;;2.55;1.80;;;;;;;16.74;70.00;102538.91;5010363;28;20018;-68
2022/08/09 00:25:24;;;;;;;3.38;1.73;;;;;;;16.62;70.28;102526.47;4994229;28;20034;-69
2022/08/09 00:27:49;;;;;;;7.55;2.00;;;;;;;16.69;70.20;102530.28;4994353;28;20026;-69
2022/08/09 00:30:15;;;;;;;7.47;1.88;;;;;;;16.74;69.86;102531.56;5009844;28;20046;-68
2022/08/09 00:32:40;;;;;;;6.15;2.25;;;;;;;16.63;70.35;102536.41;4993909;28;20030;-68
2022/08/09 00:35:07;;;;;;;8.55;2.15;;;;;;;16.61;69.92;102538.41;4993483;28;20022;-69
2022/08/09 00:37:32;;;;;;;3.08;1.70;;;;;;;16.80;69.46;102530.91;4993647;28;20050;-69
2022/08/09 00:39:58;;;;;;;6.00;1.98;;;;;;;16.80;69.92;102541.00;4994757;28;20030;-69
2022/08/09 00:42:23;;;;;;;2.45;1.85;;;;;;;16.68;70.30;102542.25;4992962;28;20026;-68
2022/08/09 00:44:49;;;;;;;4.97;2.35;;;;;;;16.57;70.37;102548.81;5010030;28;20412;-68
2022/08/09 00:47:14;;;;;;;5.03;2.10;;;;;;;16.61;70.73;102543.88;5009800;28;20165;-68
2022/08/09 00:49:40;;;;;;;4.15;1.98;;;;;;;16.48;71.03;102539.66;4994477;28;20121;-68
2022/08/09 00:52:05;;;;;;;5.20;1.92;;;;;;;16.42;71.32;102540.28;4993529;28;20042;-69
2022/08/09 00:54:32;;;;;;;7.15;2.63;;;;;;;16.53;71.02;102542.78;4992339;28;20040;-67
2022/08/09 00:56:57;;;;;;;3.30;2.40;;;;;;;16.61;70.72;102543.88;4993028;28;20018;-68
2022/08/09 00:59:23;;;;;;;4.53;2.33;;;;;;;16.48;71.01;102534.19;4993573;28;20029;-69
2022/08/09 01:01:50;;;;;;;7.85;2.20;;;;;;;16.30;71.56;102544.28;4993921;28;20030;-69
2022/08/09 01:04:18;;;;;;;6.15;2.30;;;;;;;16.14;72.39;102536.75;4993160;28;20544;-68
2022/08/09 01:06:51;;;;;;;2.75;1.92;;;;;;;16.11;72.34;102531.63;4993437;28;20026;-68
2022/08/09 01:09:46;;;;;;;4.28;2.40;;;;;;;16.17;72.00;102532.84;4993266;28;20023;-68
2022/08/09 01:12:28;;;;;;;7.15;2.47;;;;;;;16.06;72.57;102527.63;4993577;28;20026;-69
2022/08/09 01:14:53;;;;;;;;;;;;;;;15.89;73.10;102532.88;4993732;28;20026;-69
2022/08/09 01:17:54;;;;;;;8.18;2.78;;;;;;;16.02;72.67;102533.38;4993442;28;19916;-68
2022/08/09 01:20:41;;;;;;;5.93;2.22;;;;;;;16.11;72.21;102526.16;4981747;28;20034;-68
2022/08/09 01:23:27;;;;;;;5.82;2.30;;;;;;;16.21;71.66;102528.81;4994730;28;20460;-68
2022/08/09 01:26:05;;;;;;;8.05;2.20;;;;;;;16.20;71.21;102525.22;4993354;28;20063;-67
2022/08/09 01:28:31;;;;;;;3.78;2.20;;;;;;;16.04;71.66;102529.63;4994572;28;20030;-68
2022/08/09 01:31:03;;;;;;;3.95;2.13;;;;;;;16.08;71.34;102520.13;5009894;28;20030;-70
2022/08/09 01:33:37;;;;;;;3.85;2.40;;;;;;;16.09;71.36;102521.84;5009438;28;20038;-69
2022/08/09 01:36:18;;;;;;;4.95;1.77;;;;;;;16.09;70.95;102521.84;4993912;28;20121;-69
2022/08/09 01:38:47;;;;;;;5.03;2.30;;;;;;;16.01;72.09;102526.19;5009504;28;20026;-69
2022/08/09 01:41:27;;;;;;;8.48;2.15;;;;;;;15.93;71.73;102531.59;4992551;28;20022;-69
2022/08/09 01:43:56;;;;;;;2.70;2.20;;;;;;;15.72;73.61;102531.00;4994187;28;20018;-68
2022/08/09 01:46:26;;;;;;;7.20;3.05;;;;;;;15.74;73.75;102528.94;4992750;28;20030;-69
2022/08/09 01:48:57;;;;;;;5.43;3.78;;;;;;;15.82;72.53;102531.78;4992937;28;20073;-68
2022/08/09 01:51:25;;;;;;;4.85;2.90;;;;;;;15.86;72.20;102526.88;4992375;28;20055;-69
2022/08/09 01:53:54;;;;;;;4.32;2.40;;;;;;;15.89;71.88;102524.69;4991540;28;20046;-67
2022/08/09 01:56:21;;;;;;;5.25;2.67;;;;;;;15.92;71.91;102521.66;4991021;28;20129;-70
2022/08/09 01:58:49;;;;;;;4.05;2.20;;;;;;;15.94;72.21;102525.09;4992687;28;20488;-69
2022/08/09 02:01:16;;;;;;;8.75;2.10;;;;;;;15.85;72.15;102520.56;4992629;28;20258;-69
2022/08/09 02:03:43;;;;;;;3.13;1.98;;;;;;;15.60;72.54;102534.91;4992307;28;20022;-70
2022/08/09 02:06:09;;;;;;;5.95;2.78;;;;;;;15.51;74.31;102533.03;4992642;28;20014;-69
2022/08/09 02:08:38;;;;;;;6.35;2.60;;;;;;;15.45;74.52;102535.38;4992556;28;20032;-69
2022/08/09 02:11:06;;;;;;;7.63;2.55;;;;;;;15.44;74.89;102522.72;4993491;28;20109;-68
2022/08/09 02:13:35;;;;;;;5.13;2.45;;;;;;;15.55;74.39;102534.47;4993102;28;20037;-69
2022/08/09 02:16:02;;;;;;;8.23;2.80;;;;;;;15.54;74.46;102528.16;4992209;28;20029;-69
2022/08/09 02:18:31;;;;;;;5.72;2.70;;;;;;;15.52;74.58;102529.28;4992625;28;20117;-69
2022/08/09 02:21:01;;;;;;;5.57;2.80;;;;;;;15.53;74.63;102533.78;4992856;28;20121;-67
2022/08/09 02:23:37;;;;;;;4.40;2.63;;;;;;;15.65;73.30;102538.06;4992123;28;20077;-70
2022/08/09 02:26:05;;;;;;;6.88;2.40;;;;;;;15.64;73.50;102528.13;4991212;28;20053;-69
2022/08/09 02:28:38;;;;;;;3.58;2.88;;;;;;;15.53;73.21;102531.03;4988998;28;20073;-68
2022/08/09 02:31:08;;;;;;;3.13;2.35;;;;;;;15.31;75.03;102538.56;4989308;28;20370;-68
2022/08/09 02:33:37;;;;;;;6.85;2.63;;;;;;;15.29;75.57;102535.16;4991579;28;20022;-68
2022/08/09 02:36:06;;;;;;;4.50;2.75;;;;;;;15.21;75.87;102537.75;4991270;28;20073;-68
2022/08/09 02:38:35;;;;;;;4.00;2.60;;;;;;;15.23;75.69;102541.19;4991015;28;20106;-68
2022/08/09 02:41:12;;;;;;;8.60;3.70;;;;;;;15.35;75.10;102534.56;4991666;28;20052;-69
2022/08/09 02:43:41;;;;;;;6.35;2.78;;;;;;;15.37;75.12;102543.44;4993357;28;20113;-68
2022/08/09 02:46:09;;;;;;;7.93;1.98;;;;;;;15.38;74.98;102542.41;4991879;28;20029;-68
2022/08/09 02:48:37;;;;;;;5.55;2.63;;;;;;;15.37;75.18;102529.78;4988774;23;20046;-73
2022/08/09 02:51:07;;;;;;;6.03;2.75;;;;;;;15.32;74.45;102523.94;4967307;28;20023;-73
2022/08/09 02:53:38;;;;;;;8.38;2.67;;;;;;;15.49;73.64;102530.47;4958172;28;20047;-73
2022/08/09 02:56:06;;;;;;;6.35;2.70;;;;;;;15.50;73.26;102520.41;4952816;28;20019;-73
2022/08/09 02:58:33;;;;;;;4.20;2.65;;;;;;;15.50;73.99;102525.88;4967811;28;20035;-73
2022/08/09 03:01:00;;;;;;;5.85;2.50;;;;;;;15.33;75.32;102530.25;4967260;28;20015;-73
2022/08/09 03:03:27;;;;;;;4.40;3.00;;;;;;;15.36;75.20;102536.25;4968194;28;20046;-73
2022/08/09 03:05:55;;;;;;;5.18;2.70;;;;;;;15.35;75.10;102534.56;4959057;28;20019;-73
2022/08/09 03:08:22;;;;;;;12.30;3.13;;;;;;;15.29;74.99;102535.16;4947381;29;20437;-73
2022/08/09 03:10:49;;;;;;;5.93;3.10;;;;;;;15.16;75.86;102537.34;4956629;28;20078;-73
2022/08/09 03:13:16;;;;;;;10.70;3.50;;;;;;;15.28;75.55;102538.03;4954835;29;20031;-73
2022/08/09 03:15:42;;;;;;;8.07;2.83;;;;;;;15.29;75.13;102535.16;4961767;28;20035;-74
2022/08/09 03:18:09;;;;;;;8.13;3.42;;;;;;;15.12;75.87;102533.16;4954804;29;20024;-73
2022/08/09 03:20:37;;;;;;;11.32;3.45;;;;;;;15.16;75.48;102537.34;4954975;28;20114;-70
2022/08/09 03:23:04;;;;;;;5.80;3.75;;;;;;;15.14;75.53;102536.63;4971599;28;20450;-71
2022/08/09 03:25:31;;;;;;;5.97;3.05;;;;;;;14.84;77.18;102541.25;4971297;28;20106;-70
2022/08/09 03:27:58;;;;;;;6.45;3.83;;;;;;;14.92;76.70;102541.38;4956957;28;20074;-71
2022/08/09 03:30:24;;;;;;;7.88;3.70;;;;;;;14.86;76.96;102550.16;4956979;28;20023;-71
2022/08/09 03:32:53;;;;;;;6.70;3.83;;;;;;;14.77;77.26;102556.50;4951050;29;20055;-71
2022/08/09 03:35:18;;;;;;;6.00;3.67;;;;;;;14.75;77.68;102552.19;4954421;29;20098;-71
2022/08/09 03:37:44;;;;;;;11.43;3.95;;;;;;;14.86;77.12;102544.69;4954830;29;20488;-71
2022/08/09 03:40:10;;;;;;;10.85;4.05;;;;;;;14.84;77.53;102545.88;4970840;28;20023;-71
2022/08/09 03:42:36;;;;;;;10.75;3.90;;;;;;;14.90;77.23;102556.19;4962532;28;20050;-71
2022/08/09 03:45:01;;;;;;;5.55;4.18;;;;;;;14.88;76.99;102548.16;4954776;29;20023;-71
2022/08/09 03:47:26;;;;;;;7.50;3.67;;;;;;;14.89;76.96;102549.88;4955415;28;20034;-71
2022/08/09 03:49:52;;;;;;;8.63;3.65;;;;;;;14.85;77.52;102548.44;4957646;28;20401;-71
2022/08/09 03:52:19;;;;;;;16.23;3.97;;;;;;;14.64;78.02;102555.94;4970564;28;20023;-71
2022/08/09 03:54:46;;;;;;;11.43;4.47;;;;;;;14.72;77.98;102547.88;4958999;28;20126;-70
2022/08/09 03:57:14;;;;;;;9.43;3.85;;;;;;;14.86;77.35;102544.69;4956520;28;20122;-70
2022/08/09 03:59:42;;;;;;;8.02;4.32;;;;;;;14.84;77.42;102546.72;4970463;28;20038;-70
2022/08/09 04:02:08;;;;;;;6.38;4.20;;;;;;;14.77;77.41;102545.59;4955278;28;20418;-70
2022/08/09 04:04:34;;;;;;;9.85;4.63;;;;;;;14.66;78.23;102559.34;4970032;28;20113;-70
2022/08/09 04:07:00;;;;;;;7.97;4.30;;;;;;;14.85;77.31;102547.56;4955751;29;20027;-70
2022/08/09 04:09:25;;;;;;;6.53;3.55;;;;;;;14.89;77.12;102549.03;4953868;28;20027;-70
2022/08/09 04:12:09;;;;;;;7.38;4.25;;;;;;;14.76;77.61;102549.31;4970583;28;20034;-70
2022/08/09 04:14:39;;;;;;;6.18;4.43;;;;;;;14.65;77.93;102552.19;4948560;29;20030;-70
2022/08/09 04:17:05;;;;;;;8.23;4.57;;;;;;;14.46;79.23;102547.59;4951785;29;20031;-70
2022/08/09 04:19:30;;;;;;;10.00;4.45;;;;;;;14.60;78.68;102554.47;4960167;28;20494;-70
2022/08/09 04:21:56;;;;;;;7.97;5.22;;;;;;;14.66;77.93;102559.34;4970558;28;20142;-70
2022/08/09 04:24:21;;;;;;;7.93;4.82;;;;;;;14.56;78.30;102563.97;4933048;28;20023;-70
2022/08/09 04:26:46;;;;;;;10.60;4.60;;;;;;;14.58;78.73;102556.50;4955972;28;20030;-70
2022/08/09 04:29:12;;;;;;;8.60;4.30;;;;;;;14.77;77.20;102556.50;4953240;28;20020;-70
2022/08/09 04:31:37;;;;;;;11.07;4.82;;;;;;;14.83;77.56;102561.38;4962209;28;20027;-70
2022/08/09 04:34:03;;;;;;;8.52;4.97;;;;;;;14.87;77.23;102551.91;4954720;28;20034;-70
2022/08/09 04:36:30;;;;;;;9.68;4.65;;;;;;;14.96;77.13;102549.31;4950451;29;20015;-70
2022/08/09 04:38:58;;;;;;;5.35;4.22;;;;;;;14.92;77.06;102555.03;4953506;28;20031;-70
2022/08/09 04:41:23;;;;;;;9.43;4.55;;;;;;;15.01;76.88;102549.72;4953085;29;20034;-70
2022/08/09 04:43:49;;;;;;;7.80;4.55;;;;;;;15.07;76.40;102546.41;4961349;28;20027;-70
2022/08/09 04:46:15;;;;;;;12.38;4.78;;;;;;;14.94;77.51;102563.09;4953259;29;20019;-70
2022/08/09 04:48:40;;;;;;;12.25;6.03;;;;;;;14.70;78.31;102560.81;4969060;28;20042;-70
2022/08/09 04:51:05;;;;;;;9.00;5.55;;;;;;;14.61;78.84;102572.59;4969306;28;20031;-70
2022/08/09 04:53:31;;;;;;;22.90;8.13;;;;;;;14.77;78.30;102572.84;4968925;28;20135;-70
2022/08/09 04:55:57;;;;;;;12.82;7.57;;;;;;;14.96;77.51;102576.56;4953514;28;20019;-70
2022/08/09 04:58:23;;;;;;;10.10;5.45;;;;;;;15.02;77.26;102576.00;4952759;28;20019;-70
2022/08/09 05:00:48;;;;;;;10.82;5.80;;;;;;;14.97;77.53;102567.38;4969047;28;20034;-70
2022/08/09 05:03:17;;;;;;;12.52;5.85;;;;;;;14.98;77.73;102569.09;4954034;28;20027;-70
2022/08/09 05:05:42;;;;;;;10.88;5.28;;;;;;;15.09;77.51;102572.53;4953893;28;20019;-70
2022/08/09 05:08:08;;;;;;;9.27;5.85;;;;;;;15.00;77.85;102567.13;4968837;28;20098;-70
2022/08/09 05:10:33;;;;;;;9.27;5.53;;;;;;;15.03;78.08;102583.16;4952604;28;20123;-70
2022/08/09 05:12:58;;;;;;;13.05;6.28;;;;;;;15.21;77.52;102581.41;4949551;29;20490;-70
2022/08/09 05:15:25;;;;;;;21.52;6.45;;;;;;;15.18;77.54;102584.44;4966982;28;20023;-70
2022/08/09 05:17:50;;;;;;;9.35;5.53;;;;;;;15.34;77.12;102581.09;4964245;28;20033;-70
2022/08/09 05:20:15;;;;;;;12.68;5.03;;;;;;;15.44;76.74;102593.69;4968916;28;20401;-70
2022/08/09 05:22:41;;;;;;;8.82;5.70;;;;;;;15.48;76.58;102588.81;4965714;28;20030;-70
2022/08/09 05:25:07;;;;;;;14.40;5.35;;;;;;;15.47;76.49;102596.16;4968421;28;20031;-70
2022/08/09 05:27:32;;;;;;;9.80;5.05;;;;;;;15.45;77.08;102598.19;4952140;28;20026;-70
2022/08/09 05:29:57;;;;;;;10.27;5.15;;;;;;;15.44;77.23;102593.69;4952404;28;20019;-70
2022/08/09 05:32:23;;;;;;;12.38;5.30;;;;;;;15.62;76.88;102601.16;4953126;28;20031;-70
2022/08/09 05:34:49;;;;;;;10.25;5.80;;;;;;;15.88;75.59;102596.72;4960167;28;20029;-70
2022/08/09 05:37:14;;;;;;;10.80;6.03;;;;;;;15.72;76.26;102607.47;4967801;28;20034;-69
2022/08/09 05:39:40;;;;;;;10.40;5.63;;;;;;;15.85;75.64;102602.50;4958925;28;20035;-69
2022/08/09 05:42:06;;;;;;;13.57;5.35;;;;;;;15.67;76.53;102612.50;4952219;28;20054;-69
2022/08/09 05:44:31;;;;;;;12.40;5.90;;;;;;;15.88;76.05;102602.19;4966184;28;20382;-69
2022/08/09 05:46:57;;;;;;;11.75;5.57;;;;;;;16.01;75.37;102608.19;4952607;29;20027;-69
2022/08/09 05:49:22;;;;;;;12.27;5.30;;;;;;;15.94;76.14;102612.53;4952295;29;20035;-69
2022/08/09 05:51:47;;;;;;;18.15;5.65;;;;;;;15.79;76.88;102611.31;4968516;28;20035;-69
2022/08/09 05:54:13;;;;;;;11.98;5.22;;;;;;;15.97;76.38;102606.78;4952750;29;20126;-69
2022/08/09 05:56:38;;;;;;;7.28;5.00;;;;;;;16.28;75.49;102611.91;4948670;29;20074;-71
2022/08/09 05:59:04;;;;;;;7.07;4.47;;;;;;;16.36;74.88;102622.94;4960951;28;20027;-69
2022/08/09 06:01:29;;;;;;;14.82;4.78;;;;;;;16.53;74.43;102618.50;4932411;28;20033;-70
2022/08/09 06:03:55;;;;;;;12.07;4.88;;;;;;;16.60;74.34;102618.75;4949506;28;20034;-70
2022/08/09 06:06:22;;;;;;;6.55;4.43;;;;;;;16.83;73.61;102630.13;4952599;28;20031;-69
2022/08/09 06:08:47;;;;;;;8.25;4.82;;;;;;;16.84;73.98;102626.38;4952664;28;20031;-69
2022/08/09 06:11:13;;;;;;;7.80;4.07;;;;;;;16.94;73.37;102633.47;4947531;28;20038;-69
2022/08/09 06:13:38;;;;;;;8.30;4.72;;;;;;;17.09;73.28;102636.53;4948378;29;20038;-69
2022/08/09 06:16:04;;;;;;;7.90;4.38;;;;;;;16.95;73.71;102637.97;4955579;28;20030;-69
2022/08/09 06:18:31;;;;;;;13.63;4.47;;;;;;;17.03;73.30;102637.16;4966313;28;20027;-69
2022/08/09 06:20:57;;;;;;;8.10;4.60;;;;;;;17.21;73.03;102634.38;4967472;28;20085;-69
2022/08/09 06:23:24;;;;;;;12.50;4.90;;;;;;;17.19;73.40;102636.44;4951965;28;20039;-69
2022/08/09 06:25:50;;;;;;;13.13;4.75;;;;;;;17.31;72.80;102635.16;4959769;28;20038;-69
2022/08/09 06:28:15;;;;;;;7.22;4.18;;;;;;;17.45;72.31;102630.97;4959113;28;20026;-69
2022/08/09 06:30:41;;;;;;;8.45;4.00;;;;;;;17.27;73.18;102639.22;4975302;28;20057;-69
2022/08/09 06:33:07;;;;;;;8.77;4.93;;;;;;;17.34;73.38;102640.31;4974283;28;20053;-70
2022/08/09 06:35:32;;;;;;;9.60;4.63;;;;;;;17.36;73.09;102643.75;4975982;28;20029;-69
2022/08/09 06:37:58;;;;;;;9.18;4.32;;;;;;;17.40;72.84;102636.94;4956162;28;20386;-69
2022/08/09 06:40:23;;;;;;;10.60;5.75;;;;;;;17.56;73.09;102634.31;4952103;28;20063;-69
2022/08/09 06:42:48;;;;;;;14.18;4.03;;;;;;;17.69;72.64;102643.97;4947661;28;20043;-69
2022/08/09 06:45:14;;;;;;;8.88;4.13;;;;;;;17.90;72.01;102641.72;4948894;29;20015;-69
2022/08/09 06:47:39;;;;;;;9.60;4.20;;;;;;;17.95;71.87;102650.34;4952312;28;20114;-69
2022/08/09 06:50:06;;;;;;;10.80;4.18;;;;;;;18.13;71.37;102653.00;4959142;28;20031;-71
2022/08/09 06:52:31;;;;;;;9.60;3.83;;;;;;;18.22;71.08;102652.00;4940081;28;20051;-70
2022/08/09 06:54:57;;;;;;;8.55;4.10;;;;;;;18.30;70.76;102654.75;4930124;28;20178;-70
2022/08/09 06:57:22;;;;;;;5.88;3.80;;;;;;;18.37;70.77;102650.31;4940108;28;20053;-70
2022/08/09 06:59:47;;;;;;;11.52;4.20;;;;;;;18.50;70.16;102655.34;4948217;28;20058;-69
2022/08/09 07:02:13;;;;;;;5.55;3.25;;;;;;;18.54;70.38;102654.00;4931971;29;20880;-70
2022/08/09 07:04:38;;;;;;;9.13;3.70;;;;;;;18.70;69.60;102651.31;4943151;29;20042;-69
2022/08/09 07:07:03;;;;;;;7.03;3.67;;;;;;;18.73;69.86;102652.00;4945946;28;20020;-70
2022/08/09 07:09:29;;;;;;;9.73;3.67;;;;;;;18.58;70.02;102652.63;4957680;28;20474;-70
2022/08/09 07:11:55;;;;;;;10.40;3.83;;;;;;;18.81;69.54;102658.38;4945596;28;20434;-70
2022/08/09 07:14:20;;;;;;;6.72;4.05;;;;;;;18.68;69.87;102647.88;4943229;29;20582;-70
2022/08/09 07:16:46;;;;;;;11.38;4.45;;;;;;;18.92;69.59;102654.44;4959230;28;20023;-70
2022/08/09 07:19:12;;;;;;;9.50;3.85;;;;;;;19.19;68.36;102656.84;4960814;28;20071;-69
2022/08/09 07:21:39;;;;;;;5.70;3.50;;;;;;;19.06;68.90;102656.50;4960127;28;20042;-72
2022/08/09 07:24:06;;;;;;;6.53;3.63;;;;;;;19.05;69.06;102665.78;4946531;28;20037;-71
2022/08/09 07:26:31;;;;;;;11.63;3.50;;;;;;;19.29;68.01;102661.31;4944088;29;20114;-71
2022/08/09 07:28:56;;;;;;;8.60;3.58;;;;;;;19.33;68.01;102658.06;4942779;29;20113;-70
2022/08/09 07:31:22;;;;;;;5.30;3.45;;;;;;;19.22;68.76;102655.66;4945708;28;20019;-70
2022/08/09 07:33:48;;;;;;;9.85;4.25;;;;;;;19.38;68.07;102654.78;4959706;28;20029;-70
2022/08/09 07:36:14;;;;;;;11.95;3.20;;;;;;;19.63;67.53;102656.50;4941356;29;20031;-70
2022/08/09 07:38:39;;;;;;;4.28;2.58;;;;;;;19.87;67.27;102662.97;4957981;28;20019;-73
2022/08/09 07:41:04;;;;;;;7.38;2.70;;;;;;;20.31;65.10;102658.69;4942122;28;20023;-70
2022/08/09 07:43:30;;;;;;;8.02;3.13;;;;;;;20.13;65.59;102658.06;4944316;29;20038;-70
2022/08/09 07:45:55;;;;;;;6.72;3.03;;;;;;;20.39;64.92;102654.19;4944873;28;20027;-70
2022/08/09 07:48:21;;;;;;;5.57;3.22;;;;;;;20.33;64.81;102656.59;4955610;28;20039;-70
2022/08/09 07:50:46;;;;;;;10.02;3.35;;;;;;;20.47;64.54;102656.91;4957618;28;20035;-70
2022/08/09 07:53:11;;;;;;;5.80;3.08;;;;;;;20.54;64.41;102663.44;4946273;28;20031;-70
2022/08/09 07:55:37;;;;;;;8.63;2.95;;;;;;;21.01;63.23;102657.78;4950962;28;20405;-70
2022/08/09 07:58:02;;;;;;;3.50;2.30;;;;;;;21.03;63.59;102668.59;4956669;28;20142;-70
2022/08/09 08:00:29;;;;;;;8.13;2.60;;;;;;;21.27;62.39;102665.66;4952846;28;20023;-70
2022/08/09 08:02:56;;;;;;;8.98;2.88;;;;;;;21.31;62.16;102672.53;4946029;29;20026;-71
2022/08/09 08:05:21;;;;;;;8.18;3.00;;;;;;;21.57;61.59;102668.50;4947055;28;20466;-70
2022/08/09 08:07:47;;;;;;;12.90;2.17;;;;;;;21.73;60.89;102664.75;4962563;28;20061;-70
2022/08/09 08:10:12;;;;;;;6.28;2.45;;;;;;;21.54;61.10;102677.16;4945019;28;20031;-70
2022/08/09 08:12:42;;;;;;;7.50;2.53;;;;;;;22.02;59.94;102669.41;4954374;28;20389;-70
2022/08/09 08:15:09;;;;;;;6.13;2.28;;;;;;;22.17;59.13;102668.41;4948179;28;20036;-70
2022/08/09 08:17:35;;;;;;;8.77;3.10;;;;;;;22.19;59.32;102670.97;4952122;28;20019;-70
2022/08/09 08:20:00;;;;;;;2.83;2.00;;;;;;;22.31;58.63;102674.94;4953301;28;20030;-70
2022/08/09 08:22:26;;;;;;;4.13;2.00;;;;;;;22.41;58.31;102664.44;4949704;28;20109;-70
2022/08/09 08:24:54;;;;;;;7.80;2.20;;;;;;;22.69;57.46;102663.72;4943548;28;20114;-70
2022/08/09 08:27:25;;;;;;;10.32;1.95;;;;;;;22.25;57.78;102670.19;4947627;28;20031;-70
2022/08/09 08:29:51;;;;;;;11.43;2.00;;;;;;;22.57;57.47;102662.53;4956443;28;20070;-70
2022/08/09 08:32:18;;;;;;;5.13;1.83;;;;;;;22.82;56.46;102663.00;4953490;28;20027;-70
2022/08/09 08:34:44;;;;;;;11.07;2.05;;;;;;;22.80;56.29;102663.22;4945613;28;20498;-70
2022/08/09 08:37:09;;;;;;;5.88;2.45;;;;;;;22.83;55.94;102657.31;4948520;28;20051;-70
2022/08/09 08:39:35;;;;;;;5.97;1.90;;;;;;;22.66;56.89;102661.34;4950648;28;20489;-71
2022/08/09 08:42:01;;;;;;;26.50;2.33;;;;;;;22.64;56.92;102667.06;4951735;28;20035;-70
2022/08/09 08:44:27;;;;;;;7.40;2.10;;;;;;;22.83;55.90;102668.34;4948089;28;20047;-70
2022/08/09 08:46:53;;;;;;;5.60;2.22;;;;;;;23.34;54.17;102673.75;4946130;28;20020;-70
2022/08/09 08:49:20;;;;;;;4.80;1.85;;;;;;;23.07;55.17;102671.78;4945874;28;20046;-70
2022/08/09 08:51:46;;;;;;;6.18;1.80;;;;;;;23.11;54.44;102670.38;4947464;28;20022;-70
2022/08/09 08:54:13;;;;;;;5.82;1.83;;;;;;;23.16;54.35;102673.41;4946592;28;20031;-71
2022/08/09 08:56:39;;;;;;;8.07;1.90;;;;;;;23.01;54.68;102671.53;4947432;28;20019;-70
2022/08/09 08:59:06;;;;;;;7.05;1.92;;;;;;;23.50;52.88;102670.72;4951293;28;20019;-70
2022/08/09 09:01:35;;;;;;;5.50;1.88;;;;;;;23.56;53.27;102680.97;4944153;28;20442;-70
2022/08/09 09:04:02;;;;;;;8.10;1.65;;;;;;;23.92;51.02;102674.44;4928877;29;20062;-70
2022/08/09 09:06:32;;;;;;;4.03;1.40;;;;;;;23.76;50.14;102680.31;4946181;29;20023;-70
2022/08/09 09:08:59;;;;;;;3.80;1.52;;;;;;;23.64;51.54;102671.69;4944876;28;20042;-70
2022/08/09 09:11:26;;;;;;;6.57;1.45;;;;;;;23.95;50.71;102668.50;4945294;29;20090;-70
2022/08/09 09:13:56;;;;;;;5.95;1.77;;;;;;;23.83;50.87;102670.13;4947343;28;20031;-70
2022/08/09 09:16:21;;;;;;;4.07;1.83;;;;;;;23.65;51.69;102672.56;4957362;28;20027;-70
2022/08/09 09:18:52;;;;;;;7.18;1.73;;;;;;;22.97;53.36;102664.72;4962712;28;20122;-69
2022/08/09 09:21:18;;;;;;;8.35;1.90;;;;;;;23.24;52.76;102670.50;4962485;28;20485;-69
2022/08/09 09:23:45;;;;;;;5.78;1.30;;;;;;;23.59;51.02;102668.66;4945005;28;20054;-69
2022/08/09 09:26:12;;;;;;;4.53;1.83;;;;;;;23.98;50.79;102668.09;4946285;29;20062;-69
2022/08/09 09:28:43;;;;;;;3.60;1.20;;;;;;;24.04;49.53;102666.44;4945149;29;20055;-70
2022/08/09 09:31:14;;;;;;;3.35;1.42;;;;;;;23.87;49.30;102676.13;4955735;28;20027;-70
2022/08/09 09:33:40;;;;;;;2.17;1.27;;;;;;;23.54;50.02;102683.09;4939653;29;20034;-71
2022/08/09 09:36:08;;;;;;;4.07;1.50;;;;;;;23.55;50.11;102679.28;4947258;28;20166;-72
2022/08/09 09:38:40;;;;;;;5.18;1.40;;;;;;;23.56;50.16;102683.75;4961821;28;20089;-72
2022/08/09 09:41:06;;;;;;;4.90;1.20;;;;;;;22.95;50.39;102677.88;4944510;28;20027;-70
2022/08/09 09:43:31;;;;;;;5.32;1.58;;;;;;;23.16;50.43;102678.94;4961072;28;20544;-70
2022/08/09 09:45:57;;;;;;;6.25;1.77;;;;;;;23.23;50.55;102672.41;4944677;28;20023;-70
2022/08/09 09:48:22;;;;;;;4.18;1.65;;;;;;;23.75;50.08;102673.06;4944977;28;20058;-71
2022/08/09 09:50:50;;;;;;;11.10;1.42;;;;;;;24.23;49.20;102681.44;4943866;28;21022;-71
2022/08/09 09:53:19;;;;;;;1.73;1.27;;;;;;;24.85;48.08;102672.13;4944449;28;20041;-71
2022/08/09 09:55:56;;;;;;;4.45;1.30;;;;;;;25.19;46.35;102675.84;4945108;28;20106;-71
2022/08/09 09:58:22;;;;;;;4.05;1.67;;;;;;;25.39;45.47;102672.00;4944972;28;20019;-71
2022/08/09 10:01:15;;;;;;;3.95;1.40;;;;;;;24.98;45.47;102674.94;4942587;28;20027;-71
2022/08/09 10:03:46;;;;;;;4.78;1.60;;;;;;;25.50;43.80;102666.91;4940624;29;20038;-71
2022/08/09 10:06:12;;;;;;;4.68;1.63;;;;;;;25.14;44.56;102674.53;4940289;29;20632;-71
2022/08/09 10:08:37;;;;;;;4.07;1.30;;;;;;;25.26;45.22;102668.38;4945450;28;20023;-71
2022/08/09 10:11:23;;;;;;;2.63;1.27;;;;;;;26.01;43.41;102680.91;4948291;28;20023;-71
2022/08/09 10:13:52;;;;;;;4.60;1.38;;;;;;;25.98;44.40;102670.25;4938626;28;20130;-71
2022/08/09 10:16:31;;;;;;;6.32;1.38;;;;;;;25.44;44.94;102668.59;4961531;28;20023;-71
2022/08/09 10:18:59;;;;;;;11.32;1.20;;;;;;;25.75;44.71;102667.94;4942739;29;20645;-71
2022/08/09 10:21:25;;;;;;;3.50;1.92;;;;;;;25.81;44.21;102663.44;4945861;28;20050;-71
2022/08/09 10:23:52;;;;;;;6.93;1.50;;;;;;;25.97;43.09;102672.19;4943760;29;20430;-71
2022/08/09 10:26:20;;;;;;;5.70;1.33;;;;;;;26.51;42.49;102676.50;4961366;28;20023;-71
2022/08/09 10:28:45;;;;;;;6.60;1.67;;;;;;;26.24;42.45;102663.78;4963931;28;20035;-68
2022/08/09 10:31:12;;;;;;;5.47;1.23;;;;;;;26.33;41.99;102670.78;4947592;29;20078;-70
2022/08/09 10:33:38;;;;;;;10.95;1.70;;;;;;;25.71;43.43;102670.28;4927922;29;20031;-71
2022/08/09 10:36:05;;;;;;;3.03;1.27;;;;;;;25.78;44.13;102675.00;4947147;29;20027;-71
2022/08/09 10:38:31;;;;;;;10.38;1.52;;;;;;;26.02;43.45;102666.00;4948560;28;20024;-71
2022/08/09 10:40:57;;;;;;;9.82;2.13;;;;;;;25.67;42.92;102660.66;4963065;28;20043;-71
2022/08/09 10:43:24;;;;;;;3.15;1.40;;;;;;;25.75;42.83;102661.53;4955306;28;20023;-70
2022/08/09 10:45:49;;;;;;;10.68;1.40;;;;;;;25.85;42.88;102654.47;4948143;29;20114;-71
2022/08/09 10:48:34;;;;;;;3.83;1.50;;;;;;;26.24;42.19;102659.06;4963490;28;20577;-68
2022/08/09 10:51:14;;;;;;;25.92;1.35;;;;;;;26.18;43.14;102648.84;4947046;29;20031;-70
2022/08/09 10:54:04;;;;;;;9.55;1.38;;;;;;;26.31;42.73;102658.19;4946658;29;20031;-70
2022/08/09 10:56:32;;;;;;;6.85;1.35;;;;;;;26.72;41.80;102650.31;4963778;28;20122;-70
2022/08/09 10:59:00;;;;;;;2.78;1.33;;;;;;;26.17;43.31;102651.84;4943370;28;20039;-70
2022/08/09 11:01:31;;;;;;;5.38;1.40;;;;;;;26.48;42.18;102649.19;4946484;29;20058;-68
2022/08/09 11:04:09;;;;;;;3.08;1.30;;;;;;;26.91;41.12;102658.75;4947605;28;20087;-70
2022/08/09 11:06:39;;;;;;;3.92;1.63;;;;;;;27.12;40.41;102644.50;4947819;28;20031;-70
2022/08/09 11:09:08;;;;;;;5.72;1.30;;;;;;;27.74;39.03;102653.84;4947302;28;20086;-70
2022/08/09 11:11:56;;;;;;;4.63;1.77;;;;;;;28.24;37.81;102648.13;4947917;28;20031;-68
2022/08/09 11:14:37;;;;;;;1.80;0.90;;;;;;;28.04;37.40;102644.75;4963266;28;20027;-69
2022/08/09 11:17:14;;;;;;;3.55;1.40;;;;;;;28.45;37.41;102649.59;4947333;29;20023;-69
2022/08/09 11:19:53;;;;;;;6.90;1.75;;;;;;;28.51;36.98;102645.03;4961429;28;20405;-69
2022/08/09 11:22:19;;;;;;;5.75;1.20;;;;;;;27.56;38.37;102645.41;4948974;28;20442;-67
2022/08/09 11:25:02;;;;;;;2.15;1.20;;;;;;;26.92;38.42;102643.78;4947827;28;20049;-69
2022/08/09 11:27:33;;;;;;;4.72;1.00;;;;;;;26.99;38.61;102644.56;4950287;29;20114;-70